Aeroporto :
LOGIN :

Iscrizione | Disclaimer

   EN    FR    IT 

 










Sommario :    VFR   VFR Marginale   IFR   IFR Intensivo   IFR Molto Intensivo
Visibilità : 
Base nubi : 
>= 8 km
>= 3000ft
5 / 8 km
1000 / 3000 ft
1500m / 5 km
500 / 1000 ft
800 / 1500m
200 / 500 ft
< 800m
< 200 ft
Simboli :   Temporali  Nebbia  Neve Forte  Precipitazioni Forti  Vento > 20 kt
SIGMETs :   Varie  Temporali  Ghiacco  Turbolenza  Onda orograficha  Ceneri Vulcaniche






- Altitudine del aeroporto : 268 ft
- Codice IATA : BFS


EGAA - Belfast Aldergrove

ULTIMO METAR :
  • 280150Z 10002KT CAVOK 07/06 Q1035

METARs OBSOLETI :
  • 280120Z 09002KT CAVOK 07/06 Q1035
  • 280050Z 00000KT CAVOK 07/05 Q1035
  • 280020Z 08002KT CAVOK 08/06 Q1035
  • 272350Z 09003KT CAVOK 09/06 Q1035
  • 272320Z 11003KT CAVOK 09/07 Q1036

TAF TAF EGAA
Valido dal 28 a 00 ore il 29 a 00 ore UTC


272259Z 2800/2824 14005KT 9999 FEW040



MetMap, La meteo Aeronautica in un colpo d'occhio ! - Copyright ORBIFLY Dicembre 2007 - Disclaimer

ORBIFLY MET'MAP TEAM :

Programmazione e sviluppo : Alexandra Zaïnal
Concezione : Baudouin d'Aumeries
Aiuto per la programmazione : Marc-Olivier Méhu
Supporto tecnico e logistico : Manuel Goepfert
Aiuto per la traduzione : Arnaldo La Scala

Contatto : metmap@orbifly.com




FONTI E CREDITI :

   NOAA